Time;durP1;ratioP1;P1;durP2;ratioP2;P2;SDS_P1;SDS_P2;PMS_P1;PMS_P2;Temp;Humidity;BMP_temperature;BMP_pressure;BME280_temperature;BME280_humidity;BME280_pressure;Samples;Min_cycle;Max_cycle;Signal;HPM_P1;HPM_P2
2023/10/30 00:03:51;;;;;;;9.23;2.83;;;;;11.20;99326.00;;;;10555671;27;20210;-74
2023/10/30 00:08:53;;;;;;;8.70;2.17;;;;;11.20;99326.00;;;;10555385;27;20215;-75
2023/10/30 00:13:55;;;;;;;10.97;2.37;;;;;11.20;99335.00;;;;10517355;28;21165;-75
2023/10/30 00:18:58;;;;;;;9.67;2.27;;;;;11.20;99345.00;;;;10535802;28;20201;-75
2023/10/30 00:24:02;;;;;;;7.30;1.90;;;;;11.30;99352.00;;;;10539532;27;20898;-74
2023/10/30 00:29:04;;;;;;;9.67;2.47;;;;;11.20;99351.00;;;;10547255;27;20690;-74
2023/10/30 00:34:09;;;;;;;11.97;2.00;;;;;11.30;99362.00;;;;10543697;28;20223;-74
2023/10/30 00:39:12;;;;;;;9.70;1.97;;;;;11.30;99377.00;;;;10556041;27;20227;-75
2023/10/30 00:44:13;;;;;;;9.60;2.13;;;;;11.40;99381.00;;;;10557551;28;20196;-74
2023/10/30 00:49:15;;;;;;;12.37;2.23;;;;;11.30;99381.00;;;;10536853;28;20839;-74
2023/10/30 00:54:17;;;;;;;10.00;1.67;;;;;11.20;99391.00;;;;10552061;28;20216;-73
2023/10/30 00:59:19;;;;;;;11.40;2.43;;;;;11.20;99389.00;;;;10517319;28;20204;-74
2023/10/30 01:04:21;;;;;;;9.17;2.23;;;;;11.10;99382.00;;;;10539391;28;20200;-74
2023/10/30 01:09:23;;;;;;;10.00;2.30;;;;;11.00;99400.00;;;;10549919;27;20663;-75
2023/10/30 01:14:25;;;;;;;9.53;2.43;;;;;11.00;99398.00;;;;10537311;28;20303;-74
2023/10/30 01:19:27;;;;;;;7.33;2.70;;;;;11.00;99402.00;;;;10546679;28;20228;-74
2023/10/30 01:24:30;;;;;;;8.70;2.17;;;;;11.10;99408.00;;;;10547993;27;20299;-75
2023/10/30 01:29:32;;;;;;;7.63;1.80;;;;;11.10;99412.00;;;;10521974;28;20539;-74
2023/10/30 01:34:34;;;;;;;9.53;2.00;;;;;11.10;99409.00;;;;10526116;28;20304;-75
2023/10/30 01:39:37;;;;;;;11.30;2.87;;;;;11.00;99412.00;;;;10527754;28;20201;-74
2023/10/30 01:44:56;;;;;;;13.33;2.07;;;;;10.90;99411.00;;;;10529333;28;20873;-75
2023/10/30 01:50:00;;;;;;;8.43;2.03;;;;;10.90;99405.00;;;;10550516;28;20197;-75
2023/10/30 01:55:04;;;;;;;8.13;2.27;;;;;10.90;99406.00;;;;10534113;28;21035;-75
2023/10/30 02:00:07;;;;;;;12.90;2.23;;;;;10.90;99405.00;;;;10522023;28;20806;-76
2023/10/30 02:05:18;;;;;;;9.20;2.07;;;;;10.90;99403.00;;;;10549558;28;20204;-77
2023/10/30 02:10:20;;;;;;;8.90;1.90;;;;;10.90;99404.00;;;;10555547;27;21531;-75
2023/10/30 02:15:24;;;;;;;11.03;2.00;;;;;10.80;99410.00;;;;10562065;27;20285;-74
2023/10/30 02:20:26;;;;;;;10.00;2.13;;;;;10.80;99404.00;;;;10551012;27;20206;-75
2023/10/30 02:25:32;;;;;;;11.63;2.30;;;;;10.80;99402.00;;;;10553445;27;20208;-75
2023/10/30 02:30:34;;;;;;;9.70;2.47;;;;;10.90;99404.00;;;;10538263;27;20264;-74
2023/10/30 02:35:36;;;;;;;8.87;2.13;;;;;10.90;99398.00;;;;10533718;28;20197;-75
2023/10/30 02:40:38;;;;;;;8.40;1.83;;;;;10.80;99405.00;;;;10542425;28;20710;-74
2023/10/30 02:45:40;;;;;;;5.07;1.83;;;;;10.90;99405.00;;;;10555923;27;20271;-75
2023/10/30 02:50:44;;;;;;;7.57;1.70;;;;;10.80;99404.00;;;;10551933;27;20565;-76
2023/10/30 02:55:46;;;;;;;13.20;2.10;;;;;10.90;99406.00;;;;10520903;27;20224;-75
2023/10/30 03:00:48;;;;;;;14.07;2.30;;;;;10.80;99398.00;;;;10535914;27;20874;-75
2023/10/30 03:05:50;;;;;;;11.60;2.50;;;;;10.80;99395.00;;;;10553541;27;20773;-76
2023/10/30 03:10:51;;;;;;;12.33;2.50;;;;;10.80;99396.00;;;;10551535;27;20280;-76
2023/10/30 03:15:53;;;;;;;13.07;2.00;;;;;10.70;99405.00;;;;10541712;27;20232;-75
2023/10/30 03:20:55;;;;;;;16.00;2.93;;;;;10.70;99393.00;;;;10549699;28;20196;-75
2023/10/30 03:25:57;;;;;;;13.23;2.57;;;;;10.60;99390.00;;;;10539270;27;20307;-74
2023/10/30 03:31:06;;;;;;;9.50;1.87;;;;;10.70;99415.00;;;;10558403;27;20303;-74
2023/10/30 03:36:08;;;;;;;10.07;2.57;;;;;10.50;99404.00;;;;10541685;27;20217;-74
2023/10/30 03:41:10;;;;;;;11.27;1.90;;;;;10.50;99407.00;;;;10559535;28;20762;-74
2023/10/30 03:46:12;;;;;;;7.20;2.07;;;;;10.40;99396.00;;;;10556080;27;20200;-74
2023/10/30 03:51:17;;;;;;;7.47;1.90;;;;;10.40;99396.00;;;;10546235;28;20322;-74
2023/10/30 03:56:19;;;;;;;15.20;2.90;;;;;10.40;99395.00;;;;10554227;27;20193;-74
2023/10/30 04:01:21;;;;;;;14.53;2.30;;;;;10.30;99406.00;;;;10556355;28;22073;-74
2023/10/30 04:06:25;;;;;;;7.17;2.00;;;;;10.30;99400.00;;;;10564406;27;20196;-73
2023/10/30 04:11:27;;;;;;;12.97;2.37;;;;;10.30;99395.00;;;;10543143;27;20689;-74
2023/10/30 04:16:29;;;;;;;10.33;2.20;;;;;10.20;99401.00;;;;10532655;27;20931;-74
2023/10/30 04:21:31;;;;;;;7.57;1.63;;;;;10.20;99404.00;;;;10559078;27;20203;-72
2023/10/30 04:26:33;;;;;;;12.53;2.07;;;;;10.20;99407.00;;;;10549226;27;20938;-75
2023/10/30 04:31:34;;;;;;;11.20;2.20;;;;;10.10;99403.00;;;;10569722;27;20200;-75
2023/10/30 04:36:36;;;;;;;17.57;2.73;;;;;10.10;99393.00;;;;10566205;27;20199;-75
2023/10/30 04:41:38;;;;;;;17.80;3.13;;;;;10.20;99381.00;;;;10556275;27;20287;-74
2023/10/30 04:46:40;;;;;;;12.60;2.40;;;;;10.10;99378.00;;;;10530210;27;20210;-75
2023/10/30 04:51:42;;;;;;;14.10;2.30;;;;;10.10;99379.00;;;;10556520;27;20212;-75
2023/10/30 04:56:44;;;;;;;10.63;2.33;;;;;10.10;99383.00;;;;10550784;27;20231;-75
2023/10/30 05:01:46;;;;;;;11.90;2.20;;;;;10.00;99381.00;;;;10539034;27;20211;-76
2023/10/30 05:06:48;;;;;;;13.17;2.20;;;;;10.10;99381.00;;;;10551373;27;20204;-76
2023/10/30 05:11:50;;;;;;;13.13;2.50;;;;;10.10;99388.00;;;;10552196;27;20212;-75
2023/10/30 05:16:52;;;;;;;16.03;2.37;;;;;10.00;99395.00;;;;10542324;28;21203;-76
2023/10/30 05:21:54;;;;;;;16.77;2.63;;;;;9.90;99391.00;;;;10518955;28;20230;-75
2023/10/30 05:26:56;;;;;;;13.40;2.53;;;;;9.90;99388.00;;;;10550292;27;20227;-76
2023/10/30 05:32:02;;;;;;;12.27;2.43;;;;;9.90;99393.00;;;;10531763;28;20311;-76
2023/10/30 05:37:09;;;;;;;9.83;1.97;;;;;9.80;99397.00;;;;10545463;28;20212;-76
2023/10/30 05:42:10;;;;;;;11.00;2.00;;;;;9.80;99402.00;;;;10537528;28;20291;-75
2023/10/30 05:47:13;;;;;;;11.73;2.03;;;;;9.70;99379.00;;;;10542340;28;21025;-76
2023/10/30 05:52:15;;;;;;;12.00;2.83;;;;;9.70;99380.00;;;;10536237;28;20261;-75
2023/10/30 05:57:17;;;;;;;15.63;2.83;;;;;9.70;99377.00;;;;10550006;28;20577;-76
2023/10/30 06:02:19;;;;;;;14.03;2.67;;;;;9.70;99369.00;;;;10548738;28;20224;-74
2023/10/30 06:07:21;;;;;;;7.70;2.30;;;;;9.70;99374.00;;;;10533389;28;21118;-77
2023/10/30 06:12:23;;;;;;;12.07;2.43;;;;;9.70;99384.00;;;;10550271;28;20208;-76
2023/10/30 06:17:25;;;;;;;9.27;2.60;;;;;9.60;99381.00;;;;10527509;28;20203;-74
2023/10/30 06:22:28;;;;;;;13.67;3.20;;;;;9.60;99383.00;;;;10528270;28;20213;-74
2023/10/30 06:27:34;;;;;;;14.37;3.30;;;;;9.60;99381.00;;;;10538648;28;20884;-75
2023/10/30 06:32:36;;;;;;;10.40;2.70;;;;;9.50;99386.00;;;;10543690;28;20232;-77
2023/10/30 06:37:38;;;;;;;12.60;2.20;;;;;9.50;99387.00;;;;10557126;28;20246;-75
2023/10/30 06:42:40;;;;;;;12.30;2.30;;;;;9.60;99402.00;;;;10534864;28;20282;-74
2023/10/30 06:47:43;;;;;;;12.90;2.57;;;;;9.70;99426.00;;;;10532697;28;20200;-74
2023/10/30 06:52:45;;;;;;;14.30;3.13;;;;;9.60;99413.00;;;;10527066;28;20927;-74
2023/10/30 06:57:46;;;;;;;8.47;2.47;;;;;9.70;99410.00;;;;10553959;28;20199;-74
2023/10/30 07:02:50;;;;;;;16.30;3.27;;;;;9.70;99409.00;;;;10552558;27;20771;-74
2023/10/30 07:07:52;;;;;;;13.10;2.87;;;;;9.90;99414.00;;;;10533269;27;20203;-74
2023/10/30 07:12:54;;;;;;;7.80;2.37;;;;;10.20;99413.00;;;;10538126;27;20206;-74
2023/10/30 07:17:56;;;;;;;8.67;2.70;;;;;10.40;99423.00;;;;10523766;27;20484;-74
2023/10/30 07:22:58;;;;;;;13.63;2.90;;;;;10.50;99415.00;;;;10549314;27;21030;-74
2023/10/30 07:28:01;;;;;;;12.20;3.20;;;;;10.70;99425.00;;;;10555006;27;20204;-74
2023/10/30 07:33:03;;;;;;;14.50;3.10;;;;;10.70;99456.00;;;;10549785;28;20231;-74
2023/10/30 07:38:08;;;;;;;12.20;2.90;;;;;10.60;99454.00;;;;10554337;27;20204;-74
2023/10/30 07:43:10;;;;;;;9.27;2.70;;;;;10.70;99455.00;;;;10540168;28;20286;-74
2023/10/30 07:48:12;;;;;;;13.33;3.00;;;;;11.00;99454.00;;;;10529221;28;20199;-74
2023/10/30 07:53:14;;;;;;;12.07;2.80;;;;;11.30;99452.00;;;;10549409;27;20777;-75
2023/10/30 07:58:16;;;;;;;15.77;3.10;;;;;11.60;99453.00;;;;10538915;28;20235;-75
2023/10/30 08:03:18;;;;;;;10.50;2.43;;;;;11.90;99457.00;;;;10553975;28;20203;-76
2023/10/30 08:08:21;;;;;;;7.85;2.70;;;;;12.10;99459.00;;;;10529506;27;20215;-75
2023/10/30 08:13:23;;;;;;;16.13;2.80;;;;;12.20;99467.00;;;;10551412;27;20223;-77
2023/10/30 08:18:25;;;;;;;11.73;2.50;;;;;12.20;99467.00;;;;10541055;27;20807;-76
2023/10/30 08:23:27;;;;;;;12.30;2.38;;;;;12.30;99463.00;;;;10551055;27;20684;-75
2023/10/30 08:28:29;;;;;;;8.48;2.35;;;;;12.40;99474.00;;;;10533222;27;20291;-74
2023/10/30 08:33:31;;;;;;;8.65;2.35;;;;;12.50;99483.00;;;;10556542;27;20228;-75
2023/10/30 08:38:33;;;;;;;7.50;2.75;;;;;12.50;99476.00;;;;10553072;27;20204;-75
2023/10/30 08:43:35;;;;;;;12.50;2.53;;;;;12.50;99468.00;;;;10537613;28;20298;-78
2023/10/30 08:48:36;;;;;;;10.00;2.38;;;;;12.50;99467.00;;;;10550228;27;20204;-77
2023/10/30 08:53:39;;;;;;;7.05;2.55;;;;;12.50;99455.00;;;;10533938;27;20208;-76
2023/10/30 08:58:41;;;;;;;12.00;2.65;;;;;12.50;99459.00;;;;10550435;27;20203;-77
2023/10/30 09:03:43;;;;;;;6.40;2.55;;;;;12.60;99464.00;;;;10527857;28;20291;-72
2023/10/30 09:08:45;;;;;;;8.90;2.33;;;;;12.60;99464.00;;;;10547905;27;20192;-72
2023/10/30 09:13:47;;;;;;;12.15;2.50;;;;;12.70;99459.00;;;;10544898;27;20902;-71
2023/10/30 09:18:49;;;;;;;15.02;3.75;;;;;12.70;99453.00;;;;10533474;27;20849;-71
2023/10/30 09:23:52;;;;;;;9.73;2.33;;;;;12.60;99455.00;;;;10538693;27;20227;-72
2023/10/30 09:28:54;;;;;;;8.43;2.28;;;;;12.40;99438.00;;;;10543648;28;20205;-72
2023/10/30 09:34:00;;;;;;;8.27;2.42;;;;;12.40;99428.00;;;;10533996;28;20208;-72
2023/10/30 09:39:02;;;;;;;7.25;2.35;;;;;12.60;99429.00;;;;10535645;28;20210;-72
2023/10/30 09:44:08;;;;;;;10.95;2.70;;;;;12.80;99432.00;;;;10540817;27;20304;-72
2023/10/30 09:49:13;;;;;;;5.95;2.40;;;;;13.00;99434.00;;;;10540341;28;20929;-72
2023/10/30 09:54:17;;;;;;;5.97;2.15;;;;;13.30;99429.00;;;;10534190;28;20216;-71
2023/10/30 09:59:20;;;;;;;10.25;3.08;;;;;13.40;99424.00;;;;10537653;28;20238;-72
2023/10/30 10:04:22;;;;;;;8.45;3.13;;;;;13.50;99424.00;;;;10523540;28;20296;-72
2023/10/30 10:09:24;;;;;;;7.97;1.98;;;;;13.50;99414.00;;;;10528555;28;20342;-71
2023/10/30 10:14:29;;;;;;;5.45;2.15;;;;;13.40;99424.00;;;;10522426;28;20223;-73
2023/10/30 10:19:34;;;;;;;5.07;1.85;;;;;13.00;99433.00;;;;10543635;28;20189;-73
2023/10/30 10:24:39;;;;;;;5.32;1.77;;;;;12.80;99421.00;;;;10517209;28;20189;-73
2023/10/30 10:29:40;;;;;;;6.30;1.20;;;;;12.70;99420.00;;;;10538609;27;20204;-73
2023/10/30 10:34:42;;;;;;;5.00;1.27;;;;;13.00;99427.00;;;;10538200;27;20811;-73
2023/10/30 10:39:53;;;;;;;3.95;1.30;;;;;12.90;99417.00;;;;10530339;27;20200;-74
2023/10/30 10:44:56;;;;;;;6.38;1.20;;;;;12.80;99397.00;;;;10458609;28;20229;-74
2023/10/30 10:49:58;;;;;;;4.50;1.58;;;;;12.60;99396.00;;;;10438399;28;20330;-74
2023/10/30 10:55:03;;;;;;;8.32;1.60;;;;;13.00;99390.00;;;;10433463;28;60573;-73
2023/10/30 11:00:09;;;;;;;1.60;1.23;;;;;13.20;99372.00;;;;10451910;28;20284;-73
2023/10/30 11:08:43;;;;;;;6.03;2.17;;;;;13.60;99365.00;;;;10426337;27;61921;-72
2023/10/30 11:14:08;;;;;;;6.28;2.10;;;;;13.50;99355.00;;;;10414343;28;20230;-72
2023/10/30 11:19:10;;;;;;;4.25;2.08;;;;;13.50;99341.00;;;;10409660;28;20230;-72
2023/10/30 11:24:11;;;;;;;8.80;2.30;;;;;13.50;99331.00;;;;10387673;28;20242;-72
2023/10/30 11:29:21;;;;;;;4.05;1.75;;;;;13.30;99326.00;;;;10370720;28;20881;-72
2023/10/30 11:34:27;;;;;;;5.90;1.60;;;;;13.30;99308.00;;;;10367374;28;20795;-72
2023/10/30 11:39:32;;;;;;;5.57;1.98;;;;;13.30;99299.00;;;;10370245;28;20219;-73
2023/10/30 11:44:34;;;;;;;4.35;1.90;;;;;13.50;99286.00;;;;10372294;28;20226;-72
2023/10/30 11:49:35;;;;;;;4.63;1.77;;;;;13.80;99279.00;;;;10370380;28;20970;-72
2023/10/30 11:54:40;;;;;;;2.33;1.35;;;;;13.90;99263.00;;;;10383615;28;20303;-72
2023/10/30 11:59:41;;;;;;;4.72;1.45;;;;;13.90;99255.00;;;;10363865;28;20231;-72
2023/10/30 12:04:45;;;;;;;5.75;1.35;;;;;13.80;99252.00;;;;10361234;28;20222;-72
2023/10/30 12:09:46;;;;;;;2.10;0.93;;;;;13.70;99239.00;;;;10369129;28;20230;-72
2023/10/30 12:14:47;;;;;;;5.28;1.35;;;;;13.60;99236.00;;;;10362728;28;20310;-72
2023/10/30 12:19:48;;;;;;;4.78;1.10;;;;;13.60;99220.00;;;;10338786;28;20253;-72
2023/10/30 12:24:50;;;;;;;3.75;1.20;;;;;13.50;99219.00;;;;10339518;28;20785;-71
2023/10/30 12:29:55;;;;;;;5.03;1.20;;;;;13.50;99212.00;;;;10334664;28;20262;-72
2023/10/30 12:35:07;;;;;;;7.28;1.30;;;;;13.40;99199.00;;;;10342602;28;20253;-72
2023/10/30 12:40:12;;;;;;;5.05;1.10;;;;;13.30;99191.00;;;;10330131;28;20227;-72
2023/10/30 12:45:15;;;;;;;4.93;1.10;;;;;13.20;99195.00;;;;10334715;28;20298;-73
2023/10/30 12:50:17;;;;;;;1.92;1.20;;;;;13.10;99178.00;;;;10353752;28;20223;-72
2023/10/30 12:55:18;;;;;;;4.13;1.63;;;;;13.20;99178.00;;;;10337759;28;20253;-72
2023/10/30 13:00:19;;;;;;;3.47;1.50;;;;;13.10;99172.00;;;;10339116;28;20234;-72
2023/10/30 13:05:20;;;;;;;3.05;1.15;;;;;13.00;99160.00;;;;10339465;28;20230;-72
2023/10/30 13:10:22;;;;;;;4.03;1.23;;;;;13.00;99151.00;;;;10325361;28;21018;-73
2023/10/30 13:15:25;;;;;;;2.50;1.25;;;;;12.90;99131.00;;;;10339454;28;20227;-72
2023/10/30 13:20:26;;;;;;;2.60;1.17;;;;;12.80;99132.00;;;;10320604;28;20320;-72
2023/10/30 13:25:27;;;;;;;2.92;1.60;;;;;12.80;99125.00;;;;10328731;28;20223;-73
2023/10/30 13:30:28;;;;;;;3.70;1.52;;;;;12.60;99115.00;;;;10338318;28;20219;-73
2023/10/30 13:35:29;;;;;;;3.63;1.30;;;;;12.60;99104.00;;;;10341721;28;20828;-73
2023/10/30 13:40:30;;;;;;;3.03;1.27;;;;;12.50;99101.00;;;;10338310;28;20219;-73
2023/10/30 13:45:32;;;;;;;3.45;1.80;;;;;12.50;99097.00;;;;10330826;28;20235;-71
2023/10/30 13:50:33;;;;;;;3.30;1.60;;;;;12.40;99091.00;;;;10331910;28;20230;-71
2023/10/30 13:55:34;;;;;;;2.90;1.73;;;;;12.40;99082.00;;;;10313705;28;20336;-71
2023/10/30 14:00:35;;;;;;;3.47;1.50;;;;;12.30;99083.00;;;;10295247;28;20254;-72
2023/10/30 14:05:36;;;;;;;3.72;1.73;;;;;12.30;99082.00;;;;10309638;28;20234;-72
2023/10/30 14:10:37;;;;;;;3.67;2.38;;;;;12.40;99069.00;;;;10346537;28;20234;-72
2023/10/30 14:15:38;;;;;;;6.57;2.60;;;;;12.40;99068.00;;;;10308751;28;20235;-71
2023/10/30 14:20:40;;;;;;;4.38;2.22;;;;;12.40;99058.00;;;;10331015;28;20219;-70
2023/10/30 14:25:41;;;;;;;5.82;2.50;;;;;12.30;99043.00;;;;10344858;28;20696;-71
2023/10/30 14:30:42;;;;;;;3.17;2.70;;;;;12.30;99037.00;;;;10316264;28;20227;-70
2023/10/30 14:35:43;;;;;;;5.35;2.58;;;;;12.30;99019.00;;;;10325192;28;20226;-72
2023/10/30 14:40:44;;;;;;;4.93;2.88;;;;;12.20;99018.00;;;;10332234;28;20226;-71
2023/10/30 14:45:46;;;;;;;6.53;3.20;;;;;12.20;99018.00;;;;10334634;28;20231;-71
2023/10/30 14:50:47;;;;;;;5.45;3.33;;;;;12.20;99002.00;;;;10317882;28;20223;-71
2023/10/30 14:55:48;;;;;;;8.32;2.70;;;;;12.30;99002.00;;;;10322638;28;20215;-77
2023/10/30 15:00:49;;;;;;;4.25;2.70;;;;;12.30;98992.00;;;;10341557;28;20219;-76
2023/10/30 15:05:51;;;;;;;6.97;3.03;;;;;12.30;98997.00;;;;10340428;28;20223;-76
2023/10/30 15:10:53;;;;;;;7.18;3.17;;;;;12.20;98982.00;;;;10344489;28;20270;-76
2023/10/30 15:15:54;;;;;;;10.57;3.55;;;;;12.20;98986.00;;;;10342739;28;20589;-76
2023/10/30 15:20:55;;;;;;;6.75;3.65;;;;;12.20;98984.00;;;;10320721;28;20249;-75
2023/10/30 15:25:57;;;;;;;6.38;3.72;;;;;12.20;98986.00;;;;10343888;28;20319;-75
2023/10/30 15:30:58;;;;;;;7.72;3.72;;;;;12.10;98980.00;;;;10340988;28;20672;-77
2023/10/30 15:35:59;;;;;;;6.93;3.90;;;;;12.00;98974.00;;;;10339053;28;20219;-76
2023/10/30 15:41:00;;;;;;;5.82;4.10;;;;;12.00;98972.00;;;;10327592;28;20306;-76
2023/10/30 15:46:01;;;;;;;4.43;3.20;;;;;12.00;98970.00;;;;10339129;28;20243;-76
2023/10/30 15:51:03;;;;;;;4.88;3.92;;;;;12.00;98968.00;;;;10336987;28;20888;-76
2023/10/30 15:56:06;;;;;;;5.95;4.28;;;;;12.00;98955.00;;;;10347171;28;20234;-76
2023/10/30 16:01:12;;;;;;;6.63;4.23;;;;;11.90;98952.00;;;;10339314;28;20241;-75
2023/10/30 16:06:13;;;;;;;11.10;4.68;;;;;11.90;98938.00;;;;10346335;28;20226;-74
2023/10/30 16:11:15;;;;;;;8.90;4.70;;;;;11.90;98936.00;;;;10339314;28;20219;-74
2023/10/30 16:16:19;;;;;;;8.15;4.63;;;;;11.80;98929.00;;;;10348748;28;20237;-74
2023/10/30 16:21:21;;;;;;;6.75;4.82;;;;;11.80;98928.00;;;;10344553;28;20223;-74
2023/10/30 16:26:24;;;;;;;13.32;5.88;;;;;11.70;98927.00;;;;10341825;28;20302;-74
2023/10/30 16:31:25;;;;;;;10.93;5.03;;;;;11.70;98926.00;;;;10344626;28;20219;-74
2023/10/30 16:36:27;;;;;;;11.27;5.77;;;;;11.70;98938.00;;;;10344931;28;20791;-73
2023/10/30 16:41:28;;;;;;;10.45;5.80;;;;;11.70;98933.00;;;;10346067;28;20999;-74
2023/10/30 16:46:29;;;;;;;9.00;6.40;;;;;11.70;98937.00;;;;10348718;28;20208;-74
2023/10/30 16:51:30;;;;;;;11.10;6.70;;;;;11.70;98929.00;;;;10345893;28;20227;-74
2023/10/30 16:56:33;;;;;;;8.73;6.57;;;;;11.70;98931.00;;;;10343887;28;20219;-74
2023/10/30 17:01:34;;;;;;;8.43;6.65;;;;;11.70;98936.00;;;;10353628;28;20243;-74
2023/10/30 17:06:35;;;;;;;8.23;6.80;;;;;11.70;98920.00;;;;10344132;28;20215;-74
2023/10/30 17:11:36;;;;;;;9.00;6.72;;;;;11.70;98937.00;;;;10312356;28;20215;-74
2023/10/30 17:16:41;;;;;;;11.63;7.30;;;;;11.70;98933.00;;;;10338905;28;20912;-72
2023/10/30 17:21:43;;;;;;;11.15;7.30;;;;;11.80;98923.00;;;;10343581;28;20961;-70
2023/10/30 17:26:44;;;;;;;12.67;7.80;;;;;11.80;98922.00;;;;10326888;28;20235;-71
2023/10/30 17:31:46;;;;;;;9.50;7.22;;;;;11.80;98914.00;;;;10328205;28;20237;-71
2023/10/30 17:36:47;;;;;;;11.03;7.40;;;;;11.80;98924.00;;;;10341516;28;20683;-71
2023/10/30 17:41:48;;;;;;;9.90;7.43;;;;;11.80;98925.00;;;;10343480;28;20220;-72
2023/10/30 17:46:49;;;;;;;9.75;7.80;;;;;11.90;98911.00;;;;10324411;28;20227;-72
2023/10/30 17:51:50;;;;;;;9.75;6.78;;;;;11.90;98913.00;;;;10342898;28;20293;-71
2023/10/30 17:56:52;;;;;;;9.18;6.75;;;;;11.90;98918.00;;;;10336704;28;20807;-70
2023/10/30 18:01:54;;;;;;;7.53;6.28;;;;;11.90;98915.00;;;;10345485;28;20223;-72
2023/10/30 18:06:55;;;;;;;8.43;6.20;;;;;11.90;98918.00;;;;10340619;28;20230;-70
2023/10/30 18:11:56;;;;;;;9.05;7.65;;;;;11.90;98917.00;;;;10340198;28;20220;-71
2023/10/30 18:16:58;;;;;;;13.82;7.93;;;;;12.00;98915.00;;;;10335902;28;20247;-72
2023/10/30 18:21:59;;;;;;;8.73;7.32;;;;;12.00;98909.00;;;;10340370;28;20269;-71
2023/10/30 18:27:00;;;;;;;9.27;6.10;;;;;12.10;98909.00;;;;10325709;28;20684;-72
2023/10/30 18:32:01;;;;;;;7.00;6.30;;;;;12.10;98900.00;;;;10338970;28;20678;-72
2023/10/30 18:37:04;;;;;;;8.43;7.20;;;;;12.10;98900.00;;;;10320873;28;20251;-71
2023/10/30 18:42:06;;;;;;;10.27;7.47;;;;;12.10;98903.00;;;;10350573;28;20226;-70
2023/10/30 18:47:07;;;;;;;10.30;7.40;;;;;12.10;98903.00;;;;10340486;28;20238;-71
2023/10/30 18:52:09;;;;;;;8.85;6.65;;;;;12.20;98901.00;;;;10334785;28;20219;-70
2023/10/30 18:57:10;;;;;;;7.63;6.43;;;;;12.20;98884.00;;;;10330824;28;20251;-71
2023/10/30 19:02:11;;;;;;;10.38;7.18;;;;;12.20;98893.00;;;;10340241;28;20243;-71
2023/10/30 19:07:13;;;;;;;8.98;6.68;;;;;12.20;98886.00;;;;10339441;28;20720;-70
2023/10/30 19:12:14;;;;;;;8.27;7.25;;;;;12.20;98889.00;;;;10350908;28;20335;-71
2023/10/30 19:17:15;;;;;;;10.40;8.50;;;;;12.20;98904.00;;;;10313104;28;20250;-70
2023/10/30 19:22:17;;;;;;;10.40;6.93;;;;;12.10;98917.00;;;;10336047;28;20276;-70
2023/10/30 19:27:18;;;;;;;7.03;5.00;;;;;11.90;98929.00;;;;10340821;28;20704;-70
2023/10/30 19:32:19;;;;;;;4.63;4.07;;;;;11.50;98942.00;;;;10350805;28;21318;-73
2023/10/30 19:37:20;;;;;;;6.43;4.00;;;;;11.20;98932.00;;;;10343331;28;20230;-73
2023/10/30 19:42:21;;;;;;;4.50;2.97;;;;;11.00;98938.00;;;;10347328;28;20227;-73
2023/10/30 19:47:22;;;;;;;3.90;2.50;;;;;10.80;98951.00;;;;10360009;28;20231;-72
2023/10/30 19:52:26;;;;;;;4.43;3.27;;;;;10.80;98973.00;;;;10339915;28;20216;-73
2023/10/30 19:57:27;;;;;;;6.10;3.73;;;;;10.70;98988.00;;;;10351984;28;20258;-73
2023/10/30 20:02:30;;;;;;;5.07;3.53;;;;;10.60;99015.00;;;;10348539;28;20247;-73
2023/10/30 20:07:32;;;;;;;5.87;4.03;;;;;10.60;99025.00;;;;10352730;28;20227;-73
2023/10/30 20:12:37;;;;;;;4.30;3.90;;;;;10.60;99039.00;;;;10339238;28;20384;-73
2023/10/30 20:17:38;;;;;;;7.27;4.60;;;;;10.50;99034.00;;;;10352632;28;20787;-73
2023/10/30 20:22:39;;;;;;;6.50;5.07;;;;;10.40;99055.00;;;;10346060;28;20312;-72
2023/10/30 20:27:41;;;;;;;6.70;6.00;;;;;10.40;99044.00;;;;10329696;28;20231;-73
2023/10/30 20:32:42;;;;;;;11.67;8.47;;;;;10.40;99051.00;;;;10350145;28;20220;-72
2023/10/30 20:37:43;;;;;;;10.93;9.07;;;;;10.40;99070.00;;;;10347020;28;20276;-72
2023/10/30 20:42:45;;;;;;;15.67;12.33;;;;;10.30;99079.00;;;;10358673;28;20224;-70
2023/10/30 20:47:47;;;;;;;16.73;13.90;;;;;10.30;99089.00;;;;10344819;28;20250;-71
2023/10/30 20:52:49;;;;;;;16.37;14.07;;;;;10.20;99099.00;;;;10344860;28;20224;-71
2023/10/30 20:57:50;;;;;;;25.67;17.10;;;;;10.20;99120.00;;;;10351559;28;20278;-70
2023/10/30 21:02:51;;;;;;;18.13;14.20;;;;;10.10;99130.00;;;;10345641;28;20288;-72
2023/10/30 21:07:53;;;;;;;13.60;10.90;;;;;10.10;99123.00;;;;10342871;28;20886;-71
2023/10/30 21:12:56;;;;;;;13.27;9.00;;;;;10.00;99143.00;;;;10345530;28;20685;-70
2023/10/30 21:17:57;;;;;;;10.43;6.20;;;;;10.00;99151.00;;;;10334454;28;20227;-70
2023/10/30 21:22:58;;;;;;;12.30;6.47;;;;;10.00;99163.00;;;;10343516;28;20672;-70
2023/10/30 21:27:59;;;;;;;6.87;4.03;;;;;10.00;99174.00;;;;10349775;28;20231;-71
2023/10/30 21:33:01;;;;;;;8.93;4.10;;;;;10.00;99183.00;;;;10340684;28;20233;-70
2023/10/30 21:38:02;;;;;;;5.43;3.87;;;;;9.90;99185.00;;;;10352910;28;20245;-70
2023/10/30 21:43:03;;;;;;;6.93;3.57;;;;;9.90;99186.00;;;;10340970;28;20766;-70
2023/10/30 21:48:05;;;;;;;7.53;3.60;;;;;9.90;99176.00;;;;10337419;28;20234;-70
2023/10/30 21:53:06;;;;;;;12.37;4.43;;;;;9.80;99193.00;;;;10344527;28;20322;-70
2023/10/30 21:58:07;;;;;;;8.30;3.90;;;;;9.80;99207.00;;;;10338798;28;20241;-72
2023/10/30 22:03:09;;;;;;;8.07;4.07;;;;;9.80;99211.00;;;;10341845;28;20230;-70
2023/10/30 22:08:10;;;;;;;15.63;4.70;;;;;9.80;99218.00;;;;10338744;28;20238;-70
2023/10/30 22:13:11;;;;;;;10.57;4.60;;;;;9.90;99214.00;;;;10341844;28;20258;-70
2023/10/30 22:18:12;;;;;;;9.90;4.33;;;;;9.90;99210.00;;;;10350540;28;20277;-70
2023/10/30 22:23:13;;;;;;;9.33;5.50;;;;;9.90;99201.00;;;;10336313;28;20364;-70
2023/10/30 22:28:14;;;;;;;8.93;6.00;;;;;10.00;99206.00;;;;10322407;28;20227;-70
2023/10/30 22:33:15;;;;;;;13.73;6.27;;;;;9.90;99209.00;;;;10335829;28;20592;-71
2023/10/30 22:38:17;;;;;;;10.83;6.33;;;;;9.90;99199.00;;;;10338852;28;20625;-71
2023/10/30 22:43:20;;;;;;;11.90;7.60;;;;;9.90;99205.00;;;;10315908;28;20310;-70
2023/10/30 22:48:21;;;;;;;14.60;8.67;;;;;9.90;99196.00;;;;10340667;28;20228;-70
2023/10/30 22:53:22;;;;;;;26.43;12.37;;;;;9.90;99199.00;;;;10341631;28;20223;-70
2023/10/30 22:58:23;;;;;;;19.83;12.37;;;;;10.00;99201.00;;;;10338190;28;20755;-73
2023/10/30 23:03:24;;;;;;;19.93;12.53;;;;;10.00;99211.00;;;;10324238;28;20223;-73
2023/10/30 23:08:25;;;;;;;20.50;12.57;;;;;10.00;99210.00;;;;10359614;28;20230;-73
2023/10/30 23:13:27;;;;;;;25.20;14.07;;;;;10.10;99223.00;;;;10344043;28;20231;-73
2023/10/30 23:18:28;;;;;;;27.77;16.00;;;;;10.00;99223.00;;;;10356237;28;20677;-73
2023/10/30 23:23:29;;;;;;;32.93;16.30;;;;;10.00;99228.00;;;;10340057;28;20315;-73
2023/10/30 23:28:30;;;;;;;38.40;19.37;;;;;10.10;99243.00;;;;10342541;28;20609;-73
2023/10/30 23:33:31;;;;;;;41.60;20.27;;;;;10.10;99237.00;;;;10340549;28;20230;-73
2023/10/30 23:38:32;;;;;;;44.97;21.03;;;;;10.20;99242.00;;;;10326098;28;20235;-73
2023/10/30 23:43:33;;;;;;;41.03;22.07;;;;;10.20;99246.00;;;;10338429;28;20892;-73
2023/10/30 23:48:35;;;;;;;46.83;23.70;;;;;10.20;99238.00;;;;10344280;28;20227;-73
2023/10/30 23:53:37;;;;;;;43.93;24.67;;;;;10.20;99244.00;;;;10343268;28;20251;-73
2023/10/30 23:58:38;;;;;;;46.97;24.53;;;;;10.20;99247.00;;;;10340340;28;20299;-73
